createdAt,value
2019-01-06T00:02:43.995Z,34.94
2019-01-06T00:08:38.937Z,35.48
2019-01-06T00:14:33.943Z,42.68
2019-01-06T00:20:29.034Z,35.67
2019-01-06T00:26:23.935Z,32.95
2019-01-06T00:32:18.930Z,42.04
2019-01-06T00:38:13.958Z,35.3
2019-01-06T00:44:08.945Z,50.91
2019-01-06T00:50:03.967Z,41.32
2019-01-06T00:55:58.966Z,42.9
2019-01-06T01:01:53.958Z,41.01
2019-01-06T01:07:48.953Z,35.48
2019-01-06T01:13:43.973Z,36.78
2019-01-06T01:19:38.969Z,32.17
2019-01-06T01:25:33.951Z,32.08
2019-01-06T01:31:29.008Z,31.73
2019-01-06T01:37:23.993Z,32.15
2019-01-06T01:43:18.986Z,32.8
2019-01-06T01:49:13.965Z,36.02
2019-01-06T01:55:09.014Z,41.07
2019-01-06T02:01:04.035Z,37.76
2019-01-06T02:06:59.039Z,39.29
2019-01-06T02:12:53.980Z,44.4
2019-01-06T02:18:48.986Z,42.6
2019-01-06T02:24:43.997Z,39.77
2019-01-06T02:30:39.014Z,46.38
2019-01-06T02:36:34.014Z,44.15
2019-01-06T02:42:29.017Z,57.69
2019-01-06T02:48:23.993Z,53.89
2019-01-06T02:54:19.010Z,76.8
2019-01-06T03:00:14.014Z,58.36
2019-01-06T03:06:09.055Z,51.36
2019-01-06T03:12:04.064Z,29.58
2019-01-06T03:17:59.017Z,36
2019-01-06T03:23:54.017Z,43.83
2019-01-06T03:29:49.031Z,41.33
2019-01-06T03:35:44.043Z,51.22
2019-01-06T03:41:39.028Z,52.13
2019-01-06T03:47:34.048Z,42.42
2019-01-06T03:53:29.021Z,48.06
2019-01-06T03:59:24.070Z,55.78
2019-01-06T04:05:19.057Z,41.76
2019-01-06T04:11:15.187Z,46.46
2019-01-06T04:17:09.042Z,42.96
2019-01-06T04:23:04.064Z,48.31
2019-01-06T04:28:59.061Z,43.06
2019-01-06T04:34:54.038Z,43.43
2019-01-06T04:40:49.132Z,43.4
2019-01-06T04:46:44.096Z,42.94
2019-01-06T04:52:39.092Z,42.6
2019-01-06T04:58:34.074Z,34.99
2019-01-06T05:04:29.103Z,37.41
2019-01-06T05:10:24.141Z,31.9
2019-01-06T05:16:19.096Z,33.7
2019-01-06T05:22:14.091Z,37.86
2019-01-06T05:28:09.108Z,46.52
2019-01-06T05:34:04.140Z,43.48
2019-01-06T05:39:59.141Z,46.81
2019-01-06T05:45:54.074Z,45.09
2019-01-06T05:51:49.132Z,27.27
2019-01-06T05:57:44.097Z,32.68
2019-01-06T06:03:39.118Z,23.33
2019-01-06T06:09:34.138Z,22.36
2019-01-06T06:15:29.103Z,27.67
2019-01-06T06:21:24.090Z,32.83
2019-01-06T06:27:19.123Z,36.86
2019-01-06T06:33:14.129Z,28.12
2019-01-06T06:39:09.119Z,34.59
2019-01-06T06:45:04.107Z,45.67
2019-01-06T06:50:59.143Z,42.99
2019-01-06T06:56:54.159Z,51.24
2019-01-06T07:02:49.136Z,58.85
2019-01-06T07:08:44.127Z,55.09
2019-01-06T07:14:39.183Z,44.02
2019-01-06T07:20:34.158Z,41.16
2019-01-06T07:26:29.153Z,41.09
2019-01-06T07:32:24.146Z,40.86
2019-01-06T07:38:19.134Z,47.49
2019-01-06T07:44:14.201Z,55.06
2019-01-06T07:50:09.185Z,40.42
2019-01-06T07:56:04.148Z,53.08
2019-01-06T08:01:59.162Z,54.57
2019-01-06T08:07:55.616Z,105.57
2019-01-06T08:13:49.198Z,71.11
2019-01-06T08:19:44.185Z,70.2
2019-01-06T08:25:39.166Z,102.09
2019-01-06T08:31:34.187Z,81.97
2019-01-06T08:37:29.180Z,81.27
2019-01-06T08:43:24.194Z,104.67
2019-01-06T08:49:19.174Z,107.68
2019-01-06T08:55:14.182Z,131.84
2019-01-06T09:01:09.168Z,116.58
2019-01-06T09:07:04.264Z,119.06
2019-01-06T09:12:59.182Z,118.92
2019-01-06T09:18:54.192Z,105.64
2019-01-06T09:24:49.188Z,102.13
2019-01-06T09:30:44.229Z,117.02
2019-01-06T09:36:39.206Z,115.08
2019-01-06T09:42:34.217Z,105.61
2019-01-06T09:48:29.236Z,127.8
2019-01-06T09:54:24.208Z,128.98
2019-01-06T10:00:19.235Z,136.39
2019-01-06T10:06:14.215Z,130.55
2019-01-06T10:12:09.223Z,129.02
2019-01-06T10:18:04.217Z,119.2
2019-01-06T10:23:59.198Z,122.91
2019-01-06T10:29:54.257Z,127.45
2019-01-06T10:35:49.238Z,177.38
2019-01-06T10:41:44.234Z,156.78
2019-01-06T10:47:39.333Z,126.7
2019-01-06T10:53:34.295Z,145.57
2019-01-06T10:59:29.231Z,117.57
2019-01-06T11:05:24.258Z,94.96
2019-01-06T11:11:19.281Z,113.15
2019-01-06T11:17:14.318Z,117.46
2019-01-06T11:23:09.257Z,104.25
2019-01-06T11:29:04.245Z,105.29
2019-01-06T11:34:59.265Z,121.72
2019-01-06T11:40:54.261Z,106.52
2019-01-06T11:46:49.312Z,107.3
2019-01-06T11:52:44.299Z,107.57
2019-01-06T11:58:39.280Z,103.85
2019-01-06T12:04:34.290Z,90.73
2019-01-06T12:10:29.291Z,98.82
2019-01-06T12:16:24.325Z,97.9
2019-01-06T12:22:19.306Z,119.46
2019-01-06T12:28:14.311Z,103.43
2019-01-06T12:34:09.297Z,128.37
2019-01-06T12:40:04.292Z,94.52
2019-01-06T12:45:59.320Z,88.32
2019-01-06T12:51:54.313Z,90.41
2019-01-06T12:57:49.306Z,83.3
2019-01-06T13:03:44.291Z,72.09
2019-01-06T13:09:39.319Z,68.44
2019-01-06T13:15:34.307Z,69.5
2019-01-06T13:21:29.331Z,60.41
2019-01-06T13:27:24.346Z,57.54
2019-01-06T13:33:19.334Z,55.94
2019-01-06T13:39:14.330Z,49.59
2019-01-06T13:45:09.350Z,68.79
2019-01-06T13:51:04.347Z,56.3
2019-01-06T13:56:59.337Z,58.4
2019-01-06T14:02:54.342Z,52.57
2019-01-06T14:08:49.352Z,46.73
2019-01-06T14:14:44.355Z,48.54
2019-01-06T14:20:39.347Z,51.55
2019-01-06T14:26:34.360Z,46.2
2019-01-06T14:32:29.370Z,47.7
2019-01-06T14:38:24.356Z,39.49
2019-01-06T14:44:19.372Z,52.32
2019-01-06T14:50:14.369Z,55.06
2019-01-06T14:56:09.382Z,52.36
2019-01-06T15:02:04.426Z,47.47
2019-01-06T15:07:59.398Z,52.11
2019-01-06T15:13:54.392Z,58.34
2019-01-06T15:19:49.387Z,62.42
2019-01-06T15:25:44.461Z,58.73
2019-01-06T15:31:39.386Z,92.33
2019-01-06T15:37:34.408Z,51.13
2019-01-06T15:43:29.414Z,52.36
2019-01-06T15:49:24.416Z,51.68
2019-01-06T15:55:19.399Z,55.89
2019-01-06T16:01:14.409Z,54.11
2019-01-06T16:07:09.479Z,77.06
2019-01-06T16:13:04.424Z,74.65
2019-01-06T16:18:59.415Z,61.42
2019-01-06T16:24:54.418Z,68.51
2019-01-06T16:30:49.428Z,67.17
2019-01-06T16:36:44.444Z,61.51
2019-01-06T16:42:39.459Z,58.53
2019-01-06T16:48:34.435Z,66.91
2019-01-06T16:54:29.514Z,65.57
2019-01-06T17:00:24.435Z,64.51
2019-01-06T17:06:19.483Z,66
2019-01-06T17:12:14.445Z,73.3
2019-01-06T17:18:09.476Z,84.5
2019-01-06T17:24:04.461Z,69.67
2019-01-06T17:29:59.461Z,63.4
2019-01-06T17:35:54.449Z,60.07
2019-01-06T17:41:49.464Z,60.27
2019-01-06T17:47:44.462Z,57.49
2019-01-06T17:53:39.483Z,54.61
2019-01-06T17:59:34.480Z,58.94
2019-01-06T18:05:29.490Z,81.29
2019-01-06T18:11:24.493Z,73.39
2019-01-06T18:17:19.493Z,54.76
2019-01-06T18:23:14.516Z,51.43
2019-01-06T18:29:09.486Z,61.38
2019-01-06T18:35:04.519Z,64.94
2019-01-06T18:40:59.514Z,68.2
2019-01-06T18:46:54.507Z,85.5
2019-01-06T18:52:49.503Z,70.9
2019-01-06T18:58:44.485Z,63.49
2019-01-06T19:04:39.540Z,57.41
2019-01-06T19:10:34.526Z,61.74
2019-01-06T19:16:29.504Z,54.72
2019-01-06T19:22:24.493Z,64.67
2019-01-06T19:28:19.575Z,44.01
2019-01-06T19:34:14.623Z,46.51
2019-01-06T19:40:09.566Z,31.07
2019-01-06T19:46:04.505Z,45.42
2019-01-06T19:51:59.536Z,41.41
2019-01-06T19:57:54.544Z,45.12
2019-01-06T20:03:49.535Z,41.76
2019-01-06T20:09:44.538Z,46.11
2019-01-06T20:15:39.595Z,47.87
2019-01-06T20:21:34.592Z,47.49
2019-01-06T20:27:29.646Z,64.9
2019-01-06T20:33:24.589Z,56.54
2019-01-06T20:39:19.550Z,49.44
2019-01-06T20:45:14.563Z,43.33
2019-01-06T20:51:09.557Z,42.09
2019-01-06T20:57:04.596Z,44.81
2019-01-06T21:02:59.662Z,53.2
2019-01-06T21:08:54.574Z,51.99
2019-01-06T21:14:49.570Z,47.69
2019-01-06T21:20:44.601Z,90.56
2019-01-06T21:26:39.558Z,94.56
2019-01-06T21:32:34.583Z,88.72
2019-01-06T21:38:29.588Z,95.63
2019-01-06T21:44:24.589Z,102.58
2019-01-06T21:50:19.602Z,96.23
2019-01-06T21:56:14.594Z,89.45
2019-01-06T22:02:09.584Z,78.73
2019-01-06T22:08:04.590Z,67.29
2019-01-06T22:13:59.637Z,47.7
2019-01-06T22:19:54.596Z,41.38
2019-01-06T22:25:49.672Z,47.72
2019-01-06T22:31:44.683Z,64.77
2019-01-06T22:37:39.627Z,62.27
2019-01-06T22:43:34.658Z,64.51
